createdAt,value
2023-05-03T00:00:52.900Z,12.38
2023-05-03T00:01:52.914Z,12.37
2023-05-03T00:02:52.912Z,12.37
2023-05-03T00:03:52.872Z,12.36
2023-05-03T00:04:52.860Z,12.34
2023-05-03T00:05:52.840Z,12.36
2023-05-03T00:06:52.944Z,12.37
2023-05-03T00:07:52.822Z,12.36
2023-05-03T00:08:52.818Z,12.37
2023-05-03T00:09:52.799Z,12.38
2023-05-03T00:10:52.791Z,12.38
2023-05-03T00:11:52.785Z,12.40
2023-05-03T00:12:52.787Z,12.43
2023-05-03T00:13:52.785Z,12.43
2023-05-03T00:14:52.742Z,12.43
2023-05-03T00:15:52.771Z,12.43
2023-05-03T00:16:52.784Z,12.43
2023-05-03T00:17:52.747Z,12.41
2023-05-03T00:18:52.687Z,12.38
2023-05-03T00:19:52.698Z,12.40
2023-05-03T00:20:52.668Z,12.43
2023-05-03T00:21:52.689Z,12.40
2023-05-03T00:22:52.649Z,12.40
2023-05-03T00:23:52.656Z,12.43
2023-05-03T00:24:52.644Z,12.41
2023-05-03T00:25:52.621Z,12.38
2023-05-03T00:26:52.619Z,12.36
2023-05-03T00:27:52.611Z,12.37
2023-05-03T00:28:52.610Z,12.36
2023-05-03T00:29:52.594Z,12.33
2023-05-03T00:30:52.645Z,12.34
2023-05-03T00:31:52.568Z,12.37
2023-05-03T00:32:52.627Z,12.40
2023-05-03T00:33:52.547Z,12.38
2023-05-03T00:34:52.525Z,12.34
2023-05-03T00:35:52.524Z,12.34
2023-05-03T00:36:52.515Z,12.34
2023-05-03T00:37:52.529Z,12.30
2023-05-03T00:38:52.506Z,12.30
2023-05-03T00:39:52.479Z,12.30
2023-05-03T00:40:52.474Z,12.26
2023-05-03T00:41:52.456Z,12.23
2023-05-03T00:42:52.461Z,12.22
2023-05-03T00:43:52.431Z,12.23
2023-05-03T00:44:53.968Z,12.21
2023-05-03T00:45:55.279Z,12.19
2023-05-03T00:46:53.501Z,12.18
2023-05-03T00:47:52.450Z,12.15
2023-05-03T00:48:52.367Z,12.12
2023-05-03T00:49:52.381Z,12.13
2023-05-03T00:50:52.383Z,12.11
2023-05-03T00:51:52.361Z,12.13
2023-05-03T00:52:52.365Z,12.11
2023-05-03T00:53:52.322Z,12.11
2023-05-03T00:54:52.337Z,12.11
2023-05-03T00:55:52.314Z,12.11
2023-05-03T00:56:52.760Z,12.11
2023-05-03T00:57:52.292Z,12.05
2023-05-03T00:58:52.277Z,12.04
2023-05-03T00:59:52.277Z,12.00
2023-05-03T01:00:52.240Z,11.98
2023-05-03T01:01:52.279Z,11.97
2023-05-03T01:02:52.308Z,11.96
2023-05-03T01:03:52.318Z,11.94
2023-05-03T01:04:52.202Z,11.97
2023-05-03T01:05:52.205Z,11.97
2023-05-03T01:06:52.300Z,11.97
2023-05-03T01:07:52.214Z,11.93
2023-05-03T01:08:52.165Z,11.93
2023-05-03T01:09:52.174Z,11.88
2023-05-03T01:10:52.154Z,11.87
2023-05-03T01:11:52.155Z,11.85
2023-05-03T01:12:52.123Z,11.82
2023-05-03T01:13:52.124Z,11.81
2023-05-03T01:14:52.113Z,11.78
2023-05-03T01:15:52.179Z,11.78
2023-05-03T01:16:52.103Z,11.79
2023-05-03T01:17:52.103Z,11.79
2023-05-03T01:18:52.067Z,11.78
2023-05-03T01:19:52.085Z,11.74
2023-05-03T01:20:52.043Z,11.70
2023-05-03T01:21:52.039Z,11.69
2023-05-03T01:22:52.035Z,11.69
2023-05-03T01:23:52.031Z,11.63
2023-05-03T01:24:52.002Z,11.64
2023-05-03T01:25:51.987Z,11.63
2023-05-03T01:26:51.979Z,11.62
2023-05-03T01:27:51.969Z,11.62
2023-05-03T01:28:51.963Z,11.62
2023-05-03T01:29:51.937Z,11.64
2023-05-03T01:30:51.935Z,11.62
2023-05-03T01:31:51.956Z,11.62
2023-05-03T01:32:51.932Z,11.60
2023-05-03T01:33:51.905Z,11.59
2023-05-03T01:34:51.887Z,11.59
2023-05-03T01:35:51.887Z,11.56
2023-05-03T01:36:51.878Z,11.51
2023-05-03T01:37:51.858Z,11.49
2023-05-03T01:38:51.858Z,11.46
2023-05-03T01:39:51.845Z,11.46
2023-05-03T01:40:51.827Z,11.44
2023-05-03T01:41:51.836Z,11.42
2023-05-03T01:42:51.802Z,11.42
2023-05-03T01:43:51.803Z,11.41
2023-05-03T01:44:51.785Z,11.41
2023-05-03T01:45:51.819Z,11.39
2023-05-03T01:46:51.752Z,11.39
2023-05-03T01:47:51.788Z,11.39
2023-05-03T01:48:51.757Z,11.36
2023-05-03T01:49:51.733Z,11.39
2023-05-03T01:50:51.747Z,11.42
2023-05-03T01:51:51.721Z,11.45
2023-05-03T01:52:51.700Z,11.45
2023-05-03T01:53:51.692Z,11.45
2023-05-03T01:54:51.684Z,11.45
2023-05-03T01:55:51.685Z,11.45
2023-05-03T01:56:51.656Z,11.45
2023-05-03T01:57:51.627Z,11.44
2023-05-03T01:58:51.620Z,11.44
2023-05-03T01:59:51.616Z,11.41
2023-05-03T02:00:51.656Z,11.42
2023-05-03T02:01:51.584Z,11.42
2023-05-03T02:02:51.659Z,11.41
2023-05-03T02:03:51.592Z,11.41
2023-05-03T02:04:51.608Z,11.38
2023-05-03T02:05:51.554Z,11.35
2023-05-03T02:06:51.610Z,11.35
2023-05-03T02:07:51.531Z,11.33
2023-05-03T02:08:51.513Z,11.30
2023-05-03T02:09:51.520Z,11.21
2023-05-03T02:10:51.490Z,11.17
2023-05-03T02:11:51.502Z,11.12
2023-05-03T02:12:51.494Z,11.06
2023-05-03T02:13:51.463Z,11.02
2023-05-03T02:14:51.460Z,11.01
2023-05-03T02:15:51.432Z,10.95
2023-05-03T02:16:51.479Z,10.93
2023-05-03T02:17:51.471Z,10.91
2023-05-03T02:18:51.424Z,10.88
2023-05-03T02:19:51.381Z,10.83
2023-05-03T02:20:51.398Z,10.81
2023-05-03T02:21:51.389Z,10.81
2023-05-03T02:22:51.372Z,10.84
2023-05-03T02:23:51.370Z,10.84
2023-05-03T02:24:51.343Z,10.86
2023-05-03T02:25:51.327Z,10.86
2023-05-03T02:26:51.324Z,10.86
2023-05-03T02:27:51.306Z,10.83
2023-05-03T02:28:51.337Z,10.80
2023-05-03T02:29:51.285Z,10.75
2023-05-03T02:30:51.304Z,10.78
2023-05-03T02:31:51.275Z,10.78
2023-05-03T02:32:51.306Z,10.78
2023-05-03T02:33:51.236Z,10.80
2023-05-03T02:34:51.234Z,10.81
2023-05-03T02:35:51.232Z,10.81
2023-05-03T02:36:51.218Z,10.80
2023-05-03T02:37:51.197Z,10.78
2023-05-03T02:38:51.193Z,10.78
2023-05-03T02:39:51.178Z,10.78
2023-05-03T02:40:51.185Z,10.75
2023-05-03T02:41:51.176Z,10.73
2023-05-03T02:42:51.159Z,10.72
2023-05-03T02:43:51.146Z,10.69
2023-05-03T02:44:51.150Z,10.69
2023-05-03T02:45:51.156Z,10.68
2023-05-03T02:46:51.125Z,10.65
2023-05-03T02:47:51.125Z,10.62
2023-05-03T02:48:51.087Z,10.58
2023-05-03T02:49:51.081Z,10.60
2023-05-03T02:50:51.073Z,10.60
2023-05-03T02:51:51.054Z,10.58
2023-05-03T02:52:51.041Z,10.58
2023-05-03T02:53:51.035Z,10.55
2023-05-03T02:54:51.018Z,10.52
2023-05-03T02:55:51.007Z,10.49
2023-05-03T02:56:51.026Z,10.44
2023-05-03T02:57:50.982Z,10.44
2023-05-03T02:58:50.970Z,10.44
2023-05-03T02:59:50.969Z,10.39
2023-05-03T03:00:50.952Z,10.36
2023-05-03T03:01:51.046Z,10.31
2023-05-03T03:02:50.997Z,10.29
2023-05-03T03:03:50.973Z,10.28
2023-05-03T03:04:50.904Z,10.26
2023-05-03T03:05:50.890Z,10.28
2023-05-03T03:06:51.012Z,10.28
2023-05-03T03:07:50.875Z,10.24
2023-05-03T03:08:50.881Z,10.22
2023-05-03T03:09:50.872Z,10.18
2023-05-03T03:10:50.877Z,10.17
2023-05-03T03:11:50.856Z,10.17
2023-05-03T03:12:50.826Z,10.16
2023-05-03T03:13:50.839Z,10.11
2023-05-03T03:14:50.827Z,10.10
2023-05-03T03:15:50.841Z,10.07
2023-05-03T03:16:50.823Z,10.06
2023-05-03T03:17:50.799Z,10.06
2023-05-03T03:18:50.766Z,10.02
2023-05-03T03:19:50.750Z,10.02
2023-05-03T03:20:50.785Z,9.99
2023-05-03T03:21:50.740Z,9.96
2023-05-03T03:22:50.721Z,9.93
2023-05-03T03:23:50.717Z,9.92
2023-05-03T03:24:50.700Z,9.91
2023-05-03T03:25:50.704Z,9.89
2023-05-03T03:26:50.688Z,9.88
2023-05-03T03:27:50.657Z,9.86
2023-05-03T03:28:50.672Z,9.86
2023-05-03T03:29:50.648Z,9.85
2023-05-03T03:30:50.653Z,9.83
2023-05-03T03:31:50.667Z,9.81
2023-05-03T03:32:50.660Z,9.78
2023-05-03T03:33:50.619Z,9.78
2023-05-03T03:34:50.591Z,9.78
2023-05-03T03:35:50.578Z,9.78
2023-05-03T03:36:50.595Z,9.78
2023-05-03T03:37:50.573Z,9.80
2023-05-03T03:38:50.547Z,9.80
2023-05-03T03:39:50.537Z,9.80
2023-05-03T03:40:50.530Z,9.77
2023-05-03T03:41:50.536Z,9.77
2023-05-03T03:42:50.508Z,9.80
2023-05-03T03:43:50.510Z,9.78
2023-05-03T03:44:50.479Z,9.74
2023-05-03T03:45:50.470Z,9.70
2023-05-03T03:46:50.507Z,9.68
2023-05-03T03:47:51.492Z,9.63
2023-05-03T03:48:50.443Z,9.60
2023-05-03T03:49:50.430Z,9.60
2023-05-03T03:50:50.429Z,9.60
2023-05-03T03:51:50.430Z,9.63
2023-05-03T03:52:50.425Z,9.60
2023-05-03T03:53:50.396Z,9.58
2023-05-03T03:54:50.373Z,9.55
2023-05-03T03:55:50.378Z,9.52
2023-05-03T03:56:50.354Z,9.50
2023-05-03T03:57:50.345Z,9.49
2023-05-03T03:58:50.332Z,9.48
2023-05-03T03:59:50.323Z,9.48
2023-05-03T04:00:50.327Z,9.48
2023-05-03T04:01:50.344Z,9.49
2023-05-03T04:02:50.391Z,9.50
2023-05-03T04:03:50.413Z,9.49
2023-05-03T04:04:50.270Z,9.49
2023-05-03T04:05:50.279Z,9.48
2023-05-03T04:06:50.297Z,9.44
2023-05-03T04:07:50.258Z,9.44
2023-05-03T04:08:50.228Z,9.45
2023-05-03T04:09:50.243Z,9.42
2023-05-03T04:10:50.213Z,9.40
2023-05-03T04:11:50.203Z,9.40
2023-05-03T04:12:50.184Z,9.37
2023-05-03T04:13:50.200Z,9.35
2023-05-03T04:14:50.165Z,9.35
2023-05-03T04:15:50.154Z,9.35
2023-05-03T04:16:50.209Z,9.37
2023-05-03T04:17:50.190Z,9.38
2023-05-03T04:18:50.119Z,9.35
2023-05-03T04:19:50.116Z,9.38
2023-05-03T04:20:50.101Z,9.40
2023-05-03T04:21:50.092Z,9.38
2023-05-03T04:22:50.088Z,9.42
2023-05-03T04:23:50.065Z,9.42
2023-05-03T04:24:50.060Z,9.44
2023-05-03T04:25:50.060Z,9.42
2023-05-03T04:26:50.032Z,9.42
2023-05-03T04:27:50.028Z,9.40
2023-05-03T04:28:50.046Z,9.40
2023-05-03T04:29:50.012Z,9.38
2023-05-03T04:30:50.070Z,9.37
2023-05-03T04:31:49.997Z,9.38
2023-05-03T04:32:49.984Z,9.37
2023-05-03T04:33:49.974Z,9.37
2023-05-03T04:34:51.308Z,9.38
2023-05-03T04:35:49.942Z,9.37
2023-05-03T04:36:49.926Z,9.38
2023-05-03T04:37:49.927Z,9.42
2023-05-03T04:38:49.918Z,9.42
2023-05-03T04:39:49.897Z,9.42
2023-05-03T04:40:49.903Z,9.42
2023-05-03T04:41:49.878Z,9.42
2023-05-03T04:42:49.873Z,9.44
2023-05-03T04:43:49.870Z,9.48
2023-05-03T04:44:49.843Z,9.49
2023-05-03T04:45:49.924Z,9.45
2023-05-03T04:46:51.195Z,9.48
2023-05-03T04:47:49.850Z,9.49
2023-05-03T04:48:49.818Z,9.48
2023-05-03T04:49:49.813Z,9.48
2023-05-03T04:50:49.782Z,9.48
2023-05-03T04:51:49.766Z,9.44
2023-05-03T04:52:49.767Z,9.48
2023-05-03T04:53:50.009Z,9.52
2023-05-03T04:54:50.079Z,9.53
2023-05-03T04:55:49.728Z,9.53
2023-05-03T04:56:49.714Z,9.56
2023-05-03T04:57:49.713Z,9.58
2023-05-03T04:58:49.698Z,9.58
2023-05-03T04:59:49.695Z,9.59
2023-05-03T05:00:49.682Z,9.60
2023-05-03T05:01:49.695Z,9.62
2023-05-03T05:02:49.740Z,9.60
2023-05-03T05:03:49.727Z,9.62
2023-05-03T05:04:49.623Z,9.59
2023-05-03T05:05:49.619Z,9.59
2023-05-03T05:06:49.701Z,9.58
2023-05-03T05:07:49.610Z,9.59
2023-05-03T05:08:49.580Z,9.60
2023-05-03T05:09:49.571Z,9.63
2023-05-03T05:10:49.563Z,9.62
2023-05-03T05:11:49.566Z,9.62
2023-05-03T05:12:49.552Z,9.63
2023-05-03T05:13:49.537Z,9.65
2023-05-03T05:14:49.530Z,9.67
2023-05-03T05:15:49.512Z,9.63
2023-05-03T05:16:49.541Z,9.63
2023-05-03T05:17:49.613Z,9.65
2023-05-03T05:18:49.490Z,9.63
2023-05-03T05:19:49.475Z,9.63
2023-05-03T05:20:49.469Z,9.62
2023-05-03T05:21:49.451Z,9.62
2023-05-03T05:22:49.445Z,9.60
2023-05-03T05:23:49.443Z,9.60
2023-05-03T05:24:49.407Z,9.63
2023-05-03T05:25:49.426Z,9.63
2023-05-03T05:26:49.405Z,9.63
2023-05-03T05:27:49.388Z,9.62
2023-05-03T05:28:50.368Z,9.62
2023-05-03T05:29:49.376Z,9.63
2023-05-03T05:30:49.599Z,9.65
2023-05-03T05:31:49.438Z,9.70
2023-05-03T05:32:49.344Z,9.71
2023-05-03T05:33:49.328Z,9.71
2023-05-03T05:34:49.318Z,9.73
2023-05-03T05:35:49.300Z,9.73
2023-05-03T05:36:49.282Z,9.74
2023-05-03T05:37:49.300Z,9.74
2023-05-03T05:38:49.277Z,9.74
2023-05-03T05:39:49.275Z,9.74
2023-05-03T05:40:49.246Z,9.77
2023-05-03T05:41:49.237Z,9.78
2023-05-03T05:42:49.223Z,9.81
2023-05-03T05:43:49.216Z,9.83
2023-05-03T05:44:49.215Z,9.85
2023-05-03T05:45:49.191Z,9.86
2023-05-03T05:46:49.183Z,9.89
2023-05-03T05:47:49.236Z,9.89
2023-05-03T05:48:49.154Z,9.92
2023-05-03T05:49:49.161Z,9.92
2023-05-03T05:50:49.134Z,9.93
2023-05-03T05:51:49.134Z,9.96
2023-05-03T05:52:49.112Z,9.96
2023-05-03T05:53:49.118Z,9.96
2023-05-03T05:54:49.090Z,9.99
2023-05-03T05:55:49.102Z,10.01
2023-05-03T05:56:49.085Z,10.01
2023-05-03T05:57:49.089Z,10.01
2023-05-03T05:58:49.061Z,10.04
2023-05-03T05:59:49.071Z,10.04
2023-05-03T06:00:49.264Z,10.06
2023-05-03T06:01:49.067Z,10.04
2023-05-03T06:02:49.363Z,10.07
2023-05-03T06:03:49.012Z,10.06
2023-05-03T06:04:49.024Z,10.06
2023-05-03T06:05:49.030Z,10.07
2023-05-03T06:06:49.065Z,10.09
2023-05-03T06:07:48.995Z,10.10
2023-05-03T06:08:48.971Z,10.11
2023-05-03T06:09:49.676Z,10.13
2023-05-03T06:10:48.981Z,10.17
2023-05-03T06:11:49.053Z,10.20
2023-05-03T06:12:48.976Z,10.20
2023-05-03T06:13:49.105Z,10.24
2023-05-03T06:15:01.535Z,10.24
2023-05-03T06:15:50.612Z,10.26
2023-05-03T06:16:48.927Z,10.29
2023-05-03T06:17:50.114Z,10.32
2023-05-03T06:18:48.866Z,10.34
2023-05-03T06:19:49.542Z,10.34
2023-05-03T06:20:48.856Z,10.39
2023-05-03T06:21:49.949Z,10.42
2023-05-03T06:22:48.831Z,10.42
2023-05-03T06:23:49.521Z,10.44
2023-05-03T06:24:48.806Z,10.47
2023-05-03T06:25:48.820Z,10.49
2023-05-03T06:26:48.770Z,10.52
2023-05-03T06:27:48.746Z,10.52
2023-05-03T06:28:48.736Z,10.55
2023-05-03T06:29:48.744Z,10.58
2023-05-03T06:30:48.745Z,10.62
2023-05-03T06:31:48.718Z,10.63
2023-05-03T06:32:48.737Z,10.65
2023-05-03T06:33:48.683Z,10.68
2023-05-03T06:34:48.665Z,10.68
2023-05-03T06:35:48.693Z,10.72
2023-05-03T06:36:48.646Z,10.75
2023-05-03T06:37:48.682Z,10.78
2023-05-03T06:38:48.682Z,10.80
2023-05-03T06:39:48.657Z,10.84
2023-05-03T06:40:48.653Z,10.87
2023-05-03T06:41:48.626Z,10.90
2023-05-03T06:42:48.602Z,10.94
2023-05-03T06:43:48.585Z,10.98
2023-05-03T06:44:48.571Z,10.99
2023-05-03T06:45:48.589Z,11.01
2023-05-03T06:46:48.578Z,11.02
2023-05-03T06:47:48.618Z,11.06
2023-05-03T06:48:48.571Z,11.08
2023-05-03T06:49:48.510Z,11.12
2023-05-03T06:50:48.497Z,11.13
2023-05-03T06:51:48.491Z,11.16
2023-05-03T06:52:48.515Z,11.17
2023-05-03T06:53:48.621Z,11.20
2023-05-03T06:54:48.517Z,11.23
2023-05-03T06:55:48.528Z,11.24
2023-05-03T06:56:49.433Z,11.27
2023-05-03T06:57:48.461Z,11.28
2023-05-03T06:58:48.460Z,11.30
2023-05-03T06:59:48.440Z,11.31
2023-05-03T07:00:48.408Z,11.36
2023-05-03T07:01:48.456Z,11.39
2023-05-03T07:02:48.474Z,11.39
2023-05-03T07:03:48.547Z,11.42
2023-05-03T07:04:48.396Z,11.44
2023-05-03T07:05:48.354Z,11.45
2023-05-03T07:06:56.530Z,11.46
2023-05-03T07:07:49.373Z,11.53
2023-05-03T07:08:48.317Z,11.53
2023-05-03T07:09:48.323Z,11.54
2023-05-03T07:10:48.280Z,11.59
2023-05-03T07:11:48.300Z,11.62
2023-05-03T07:12:48.292Z,11.63
2023-05-03T07:13:48.272Z,11.64
2023-05-03T07:14:48.239Z,11.67
2023-05-03T07:15:48.277Z,11.70
2023-05-03T07:16:48.264Z,11.74
2023-05-03T07:17:48.268Z,11.77
2023-05-03T07:18:48.195Z,11.78
2023-05-03T07:19:48.192Z,11.79
2023-05-03T07:20:48.175Z,11.79
2023-05-03T07:21:48.210Z,11.81
2023-05-03T07:22:48.161Z,11.85
2023-05-03T07:23:48.160Z,11.85
2023-05-03T07:24:48.141Z,11.88
2023-05-03T07:25:48.130Z,11.88
2023-05-03T07:26:49.247Z,11.87
2023-05-03T07:27:48.126Z,11.88
2023-05-03T07:28:48.093Z,11.93
2023-05-03T07:29:48.082Z,11.94
2023-05-03T07:30:48.063Z,11.96
2023-05-03T07:31:48.064Z,11.97
2023-05-03T07:32:48.144Z,12.00
2023-05-03T07:33:48.132Z,12.01
2023-05-03T07:34:48.038Z,12.04
2023-05-03T07:35:48.027Z,12.05
2023-05-03T07:36:48.005Z,12.08
2023-05-03T07:37:47.998Z,12.11
2023-05-03T07:38:47.988Z,12.12
2023-05-03T07:39:47.978Z,12.15
2023-05-03T07:40:49.093Z,12.18
2023-05-03T07:41:47.980Z,12.21
2023-05-03T07:42:48.669Z,12.23
2023-05-03T07:43:47.991Z,12.25
2023-05-03T07:44:47.995Z,12.31
2023-05-03T07:45:47.988Z,12.33
2023-05-03T07:46:48.903Z,12.36
2023-05-03T07:47:47.978Z,12.38
2023-05-03T07:48:48.034Z,12.41
2023-05-03T07:49:47.896Z,12.44
2023-05-03T07:50:48.584Z,12.46
2023-05-03T07:51:47.878Z,12.49
2023-05-03T07:52:48.568Z,12.52
2023-05-03T07:53:47.844Z,12.54
2023-05-03T07:54:47.850Z,12.56
2023-05-03T07:55:47.802Z,12.58
2023-05-03T07:56:48.500Z,12.62
2023-05-03T07:57:47.799Z,12.66
2023-05-03T07:58:51.001Z,12.67
2023-05-03T07:59:48.756Z,12.70
2023-05-03T08:00:47.749Z,12.74
2023-05-03T08:01:47.772Z,12.76
2023-05-03T08:02:48.668Z,12.80
2023-05-03T08:03:47.903Z,12.81
2023-05-03T08:04:48.801Z,12.85
2023-05-03T08:05:47.915Z,12.88
2023-05-03T08:06:48.502Z,12.92
2023-05-03T08:07:47.777Z,12.92
2023-05-03T08:08:48.394Z,12.95
2023-05-03T08:09:47.701Z,12.98
2023-05-03T08:10:48.386Z,13.01
2023-05-03T08:11:47.701Z,13.04
2023-05-03T08:12:48.340Z,13.09
2023-05-03T08:13:47.706Z,13.14
2023-05-03T08:14:48.651Z,13.19
2023-05-03T08:15:47.631Z,13.22
2023-05-03T08:16:48.559Z,13.28
2023-05-03T08:17:47.645Z,13.31
2023-05-03T08:18:48.531Z,13.36
2023-05-03T08:19:47.573Z,13.43
2023-05-03T08:20:48.512Z,13.44
2023-05-03T08:21:47.557Z,13.48
2023-05-03T08:22:48.245Z,13.54
2023-05-03T08:23:47.548Z,13.57
2023-05-03T08:24:48.972Z,13.62
2023-05-03T08:25:47.513Z,13.69
2023-05-03T08:26:47.513Z,13.76
2023-05-03T08:27:47.483Z,13.81
2023-05-03T08:28:48.175Z,13.88
2023-05-03T08:29:47.454Z,13.93
2023-05-03T08:30:48.135Z,13.94
2023-05-03T08:31:47.568Z,13.96
2023-05-03T08:32:48.192Z,13.94
2023-05-03T08:33:47.775Z,14.01
2023-05-03T08:34:47.389Z,14.05
2023-05-03T08:35:49.289Z,14.08
2023-05-03T08:36:47.365Z,14.12
2023-05-03T08:37:47.379Z,14.16
2023-05-03T08:38:47.357Z,14.23
2023-05-03T08:39:47.344Z,14.26
2023-05-03T08:40:47.328Z,14.29
2023-05-03T08:41:47.325Z,14.34
2023-05-03T08:42:47.354Z,14.34
2023-05-03T08:43:47.298Z,14.35
2023-05-03T08:44:47.283Z,14.41
2023-05-03T08:45:47.284Z,14.46
2023-05-03T08:46:47.285Z,14.52
2023-05-03T08:47:47.389Z,14.56
2023-05-03T08:48:47.235Z,14.57
2023-05-03T08:49:47.226Z,14.61
2023-05-03T08:50:47.226Z,14.63
2023-05-03T08:51:47.431Z,14.63
2023-05-03T08:52:47.215Z,14.64
2023-05-03T08:53:47.200Z,14.63
2023-05-03T08:54:47.305Z,14.60
2023-05-03T08:55:47.900Z,14.60
2023-05-03T08:56:47.181Z,14.61
2023-05-03T08:57:48.252Z,14.67
2023-05-03T08:58:47.180Z,14.72
2023-05-03T08:59:48.124Z,14.79
2023-05-03T09:00:47.120Z,14.82
2023-05-03T09:01:47.908Z,14.87
2023-05-03T09:02:47.160Z,14.91
2023-05-03T09:03:49.474Z,14.95
2023-05-03T09:04:47.109Z,14.95
2023-05-03T09:05:47.161Z,14.95
2023-05-03T09:06:47.077Z,14.94
2023-05-03T09:07:47.076Z,14.94
2023-05-03T09:08:47.020Z,14.97
2023-05-03T09:09:47.697Z,15.05
2023-05-03T09:10:47.523Z,15.13
2023-05-03T09:11:47.002Z,15.22
2023-05-03T09:12:46.974Z,15.31
2023-05-03T09:13:46.972Z,15.40
2023-05-03T09:14:46.973Z,15.49
2023-05-03T09:15:46.947Z,15.56
2023-05-03T09:16:47.470Z,15.62
2023-05-03T09:17:46.977Z,15.70
2023-05-03T09:18:46.919Z,15.76
2023-05-03T09:19:46.902Z,15.84
2023-05-03T09:20:46.905Z,15.89
2023-05-03T09:21:46.893Z,15.88
2023-05-03T09:22:46.871Z,15.86
2023-05-03T09:23:46.860Z,15.85
2023-05-03T09:24:46.850Z,15.84
2023-05-03T09:25:46.864Z,15.81
2023-05-03T09:26:46.825Z,15.77
2023-05-03T09:27:46.827Z,15.77
2023-05-03T09:28:46.807Z,15.77
2023-05-03T09:29:47.546Z,15.77
2023-05-03T09:30:46.822Z,15.77
2023-05-03T09:31:46.817Z,15.77
2023-05-03T09:32:46.806Z,15.80
2023-05-03T09:33:46.772Z,15.86
2023-05-03T09:34:46.730Z,15.92
2023-05-03T09:35:46.738Z,16.03
2023-05-03T09:36:46.712Z,16.07
2023-05-03T09:37:46.713Z,16.11
2023-05-03T09:38:46.701Z,16.16
2023-05-03T09:39:46.716Z,16.23
2023-05-03T09:40:46.668Z,16.27
2023-05-03T09:41:46.666Z,16.32
2023-05-03T09:42:46.707Z,16.36
2023-05-03T09:43:46.649Z,16.40
2023-05-03T09:44:46.632Z,16.44
2023-05-03T09:45:46.672Z,16.44
2023-05-03T09:46:48.085Z,16.44
2023-05-03T09:47:46.619Z,16.45
2023-05-03T09:48:46.591Z,16.47
2023-05-03T09:49:46.579Z,16.51
2023-05-03T09:50:46.596Z,16.54
2023-05-03T09:51:46.565Z,16.60
2023-05-03T09:52:46.543Z,16.69
2023-05-03T09:53:46.535Z,16.75
2023-05-03T09:54:46.525Z,16.81
2023-05-03T09:55:46.538Z,16.87
2023-05-03T09:56:46.508Z,16.90
2023-05-03T09:57:46.498Z,16.96
2023-05-03T09:58:46.500Z,17.00
2023-05-03T09:59:46.476Z,17.02
2023-05-03T10:00:46.505Z,17.05
2023-05-03T10:01:46.605Z,17.06
2023-05-03T10:02:46.477Z,17.07
2023-05-03T10:03:46.492Z,17.10
2023-05-03T10:04:46.418Z,17.14
2023-05-03T10:05:46.428Z,17.12
2023-05-03T10:06:46.426Z,17.15
2023-05-03T10:07:46.392Z,17.17
2023-05-03T10:08:46.412Z,17.24
2023-05-03T10:09:46.378Z,17.33
2023-05-03T10:10:47.080Z,17.46
2023-05-03T10:11:46.388Z,17.60
2023-05-03T10:12:47.079Z,17.71
2023-05-03T10:13:46.343Z,17.84
2023-05-03T10:14:47.339Z,17.95
2023-05-03T10:15:46.345Z,18.04
2023-05-03T10:16:47.331Z,18.14
2023-05-03T10:17:48.237Z,18.25
2023-05-03T10:18:47.003Z,18.29
2023-05-03T10:19:46.279Z,18.35
2023-05-03T10:20:46.982Z,18.42
2023-05-03T10:21:46.280Z,18.49
2023-05-03T10:22:47.021Z,18.51
2023-05-03T10:23:46.229Z,18.59
2023-05-03T10:24:46.932Z,18.64
2023-05-03T10:25:46.219Z,18.66
2023-05-03T10:26:46.309Z,18.74
2023-05-03T10:27:46.227Z,18.76
2023-05-03T10:28:46.226Z,18.79
2023-05-03T10:29:46.196Z,18.78
2023-05-03T10:30:46.145Z,18.86
2023-05-03T10:31:46.268Z,18.91
2023-05-03T10:32:46.143Z,18.94
2023-05-03T10:33:46.115Z,18.96
2023-05-03T10:34:46.525Z,18.94
2023-05-03T10:35:46.092Z,18.91
2023-05-03T10:36:49.708Z,18.91
2023-05-03T10:37:46.076Z,18.91
2023-05-03T10:38:46.055Z,18.96
2023-05-03T10:39:46.075Z,19.05
2023-05-03T10:40:46.028Z,19.07
2023-05-03T10:41:46.018Z,19.16
2023-05-03T10:42:46.012Z,19.27
2023-05-03T10:43:46.013Z,19.35
2023-05-03T10:44:45.987Z,19.40
2023-05-03T10:45:47.207Z,19.47
2023-05-03T10:46:46.059Z,19.52
2023-05-03T10:47:45.978Z,19.58
2023-05-03T10:48:45.941Z,19.65
2023-05-03T10:49:45.948Z,19.78
2023-05-03T10:50:45.929Z,19.82
2023-05-03T10:51:45.915Z,19.86
2023-05-03T10:52:45.895Z,19.90
2023-05-03T10:53:45.896Z,19.90
2023-05-03T10:54:45.871Z,19.92
2023-05-03T10:55:45.868Z,19.95
2023-05-03T10:56:45.873Z,19.98
2023-05-03T10:57:45.847Z,20.02
2023-05-03T10:58:45.867Z,20.02
2023-05-03T10:59:45.874Z,20.01
2023-05-03T11:00:45.852Z,20.00
2023-05-03T11:01:45.930Z,20.04
2023-05-03T11:02:45.824Z,20.00
2023-05-03T11:03:45.813Z,19.95
2023-05-03T11:04:45.914Z,19.92
2023-05-03T11:05:45.783Z,19.87
2023-05-03T11:06:45.848Z,19.83
2023-05-03T11:07:45.794Z,19.83
2023-05-03T11:08:45.803Z,19.87
2023-05-03T11:09:47.457Z,19.94
2023-05-03T11:10:45.717Z,19.95
2023-05-03T11:11:45.715Z,20.00
2023-05-03T11:12:45.706Z,20.04
2023-05-03T11:13:45.801Z,20.10
2023-05-03T11:14:45.727Z,20.13
2023-05-03T11:15:48.186Z,20.15
2023-05-03T11:16:45.731Z,20.17
2023-05-03T11:17:45.702Z,20.20
2023-05-03T11:18:45.689Z,20.10
2023-05-03T11:19:45.647Z,20.04
2023-05-03T11:20:45.614Z,20.05
2023-05-03T11:21:46.506Z,20.02
2023-05-03T11:22:45.589Z,20.01
2023-05-03T11:23:45.585Z,20.07
2023-05-03T11:24:45.562Z,20.13
2023-05-03T11:25:46.271Z,20.22
2023-05-03T11:26:45.577Z,20.30
2023-05-03T11:27:47.635Z,20.40
2023-05-03T11:28:45.520Z,20.48
2023-05-03T11:29:46.517Z,20.58
2023-05-03T11:30:45.499Z,20.66
2023-05-03T11:31:46.527Z,20.75
2023-05-03T11:32:45.549Z,20.82
2023-05-03T11:33:47.843Z,20.90
2023-05-03T11:34:45.446Z,21.01
2023-05-03T11:35:46.476Z,21.08
2023-05-03T11:36:45.468Z,21.13
2023-05-03T11:37:45.445Z,21.24
2023-05-03T11:38:45.424Z,21.30
2023-05-03T11:39:45.411Z,21.34
2023-05-03T11:40:45.400Z,21.36
2023-05-03T11:41:45.450Z,21.36
2023-05-03T11:42:45.411Z,21.36
2023-05-03T11:43:45.454Z,21.40
2023-05-03T11:44:45.342Z,21.43
2023-05-03T11:45:45.734Z,21.46
2023-05-03T11:46:45.395Z,21.48
2023-05-03T11:47:45.377Z,21.48
2023-05-03T11:48:45.296Z,21.51
2023-05-03T11:49:45.337Z,21.56
2023-05-03T11:50:45.356Z,21.64
2023-05-03T11:51:48.021Z,21.64
2023-05-03T11:52:45.296Z,21.66
2023-05-03T11:53:45.386Z,21.67
2023-05-03T11:54:45.295Z,21.73
2023-05-03T11:55:45.402Z,21.79
2023-05-03T11:56:45.215Z,21.82
2023-05-03T11:57:45.240Z,21.89
2023-05-03T11:58:45.207Z,21.85
2023-05-03T11:59:45.229Z,21.82
2023-05-03T12:00:45.326Z,21.86
2023-05-03T12:01:45.195Z,21.99
2023-05-03T12:02:45.441Z,22.12
2023-05-03T12:03:45.425Z,22.21
2023-05-03T12:04:46.537Z,22.31
2023-05-03T12:05:45.379Z,22.35
2023-05-03T12:06:45.530Z,22.38
2023-05-03T12:07:45.272Z,22.33
2023-05-03T12:08:45.362Z,22.31
2023-05-03T12:09:53.138Z,22.44
2023-05-03T12:10:46.556Z,22.59
2023-05-03T12:11:47.379Z,22.57
2023-05-03T12:12:48.844Z,22.76
2023-05-03T12:13:45.313Z,22.93
2023-05-03T12:14:45.768Z,22.93
2023-05-03T12:15:50.463Z,22.99
2023-05-03T12:16:46.316Z,22.94
2023-05-03T12:17:46.113Z,22.86
2023-05-03T12:18:46.713Z,22.86
2023-05-03T12:19:45.364Z,22.86
2023-05-03T12:21:54.968Z,23.39
2023-05-03T12:22:46.354Z,23.75
2023-05-03T12:23:45.979Z,23.62
2023-05-03T12:24:45.491Z,23.59
2023-05-03T12:25:49.012Z,23.69
2023-05-03T12:26:45.005Z,24.53
2023-05-03T12:27:47.304Z,25.49
2023-05-03T12:28:46.003Z,26.32
2023-05-03T12:29:47.145Z,27.08
2023-05-03T12:30:46.447Z,26.87
2023-05-03T12:31:45.035Z,26.46
2023-05-03T12:32:45.029Z,25.98
2023-05-03T12:33:58.569Z,25.64
2023-05-03T12:34:47.117Z,25.41
2023-05-03T12:35:47.267Z,25.14
2023-05-03T12:36:48.854Z,24.89
2023-05-03T12:37:46.722Z,24.75
2023-05-03T12:38:44.889Z,24.70
2023-05-03T12:39:50.245Z,24.63
2023-05-03T12:40:46.025Z,24.41
2023-05-03T12:42:44.902Z,26.54
2023-05-03T12:43:45.694Z,26.35
2023-05-03T12:44:47.265Z,27.58
2023-05-03T12:45:51.357Z,29.33
2023-05-03T12:46:46.126Z,30.85
2023-05-03T12:47:44.961Z,32.22
2023-05-03T12:48:46.641Z,33.29
2023-05-03T12:49:46.457Z,33.82
2023-05-03T12:50:45.596Z,33.99
2023-05-03T12:51:54.167Z,34.52
2023-05-03T12:52:45.932Z,35.27
2023-05-03T12:53:47.285Z,34.87
2023-05-03T12:54:48.303Z,33.28
2023-05-03T12:55:45.455Z,31.71
2023-05-03T12:56:48.316Z,31.25
2023-05-03T12:57:46.107Z,31.01
2023-05-03T12:59:07.420Z,30.44
2023-05-03T12:59:52.329Z,31.54